sensor_id;sensor_type;location;lat;lon;timestamp;P1;durP1;ratioP1;P2;durP2;ratioP2
13834;SDS011;6988;52.614;13.500;2023-03-01T00:03:47;39.00;;;24.40;;
13834;SDS011;6988;52.614;13.500;2023-03-01T00:08:39;34.27;;;23.13;;
13834;SDS011;6988;52.614;13.500;2023-03-01T00:13:31;35.43;;;24.03;;
13834;SDS011;6988;52.614;13.500;2023-03-01T00:18:24;34.00;;;24.40;;
13834;SDS011;6988;52.614;13.500;2023-03-01T00:23:17;39.33;;;25.37;;
13834;SDS011;6988;52.614;13.500;2023-03-01T00:28:09;31.77;;;24.57;;
13834;SDS011;6988;52.614;13.500;2023-03-01T00:33:01;32.97;;;25.00;;
13834;SDS011;6988;52.614;13.500;2023-03-01T00:37:52;34.90;;;24.87;;
13834;SDS011;6988;52.614;13.500;2023-03-01T00:42:49;35.13;;;25.03;;
13834;SDS011;6988;52.614;13.500;2023-03-01T00:47:40;33.80;;;25.27;;
13834;SDS011;6988;52.614;13.500;2023-03-01T00:52:32;56.27;;;37.83;;
13834;SDS011;6988;52.614;13.500;2023-03-01T00:57:24;56.30;;;36.10;;
13834;SDS011;6988;52.614;13.500;2023-03-01T01:02:17;44.23;;;32.40;;
13834;SDS011;6988;52.614;13.500;2023-03-01T01:07:10;36.10;;;27.40;;
13834;SDS011;6988;52.614;13.500;2023-03-01T01:12:02;35.40;;;24.67;;
13834;SDS011;6988;52.614;13.500;2023-03-01T01:16:55;35.60;;;26.40;;
13834;SDS011;6988;52.614;13.500;2023-03-01T01:21:48;32.27;;;24.63;;
13834;SDS011;6988;52.614;13.500;2023-03-01T01:26:42;31.47;;;24.00;;
13834;SDS011;6988;52.614;13.500;2023-03-01T01:31:36;28.53;;;22.53;;
13834;SDS011;6988;52.614;13.500;2023-03-01T01:36:31;28.43;;;22.30;;
13834;SDS011;6988;52.614;13.500;2023-03-01T01:41:26;26.27;;;21.50;;
13834;SDS011;6988;52.614;13.500;2023-03-01T01:46:21;29.97;;;22.57;;
13834;SDS011;6988;52.614;13.500;2023-03-01T01:51:22;27.93;;;21.90;;
13834;SDS011;6988;52.614;13.500;2023-03-01T01:56:19;24.83;;;20.73;;
13834;SDS011;6988;52.614;13.500;2023-03-01T02:01:14;27.13;;;20.77;;
13834;SDS011;6988;52.614;13.500;2023-03-01T02:06:07;27.77;;;21.63;;
13834;SDS011;6988;52.614;13.500;2023-03-01T02:11:10;27.37;;;20.60;;
13834;SDS011;6988;52.614;13.500;2023-03-01T02:16:05;27.03;;;21.40;;
13834;SDS011;6988;52.614;13.500;2023-03-01T02:21:07;29.03;;;22.17;;
13834;SDS011;6988;52.614;13.500;2023-03-01T02:26:17;30.53;;;22.00;;
13834;SDS011;6988;52.614;13.500;2023-03-01T02:31:21;31.17;;;22.80;;
13834;SDS011;6988;52.614;13.500;2023-03-01T02:36:31;35.90;;;25.07;;
13834;SDS011;6988;52.614;13.500;2023-03-01T02:41:28;28.40;;;22.13;;
13834;SDS011;6988;52.614;13.500;2023-03-01T02:46:27;29.60;;;23.47;;
13834;SDS011;6988;52.614;13.500;2023-03-01T02:51:42;28.90;;;21.17;;
13834;SDS011;6988;52.614;13.500;2023-03-01T02:56:46;30.40;;;21.70;;
13834;SDS011;6988;52.614;13.500;2023-03-01T03:01:42;30.63;;;22.23;;
13834;SDS011;6988;52.614;13.500;2023-03-01T03:06:34;28.63;;;21.13;;
13834;SDS011;6988;52.614;13.500;2023-03-01T03:11:27;27.17;;;20.40;;
13834;SDS011;6988;52.614;13.500;2023-03-01T03:16:19;27.30;;;21.00;;
13834;SDS011;6988;52.614;13.500;2023-03-01T03:21:14;27.53;;;20.93;;
13834;SDS011;6988;52.614;13.500;2023-03-01T03:26:07;24.30;;;19.93;;
13834;SDS011;6988;52.614;13.500;2023-03-01T03:30:59;27.50;;;20.97;;
13834;SDS011;6988;52.614;13.500;2023-03-01T03:35:53;28.07;;;20.43;;
13834;SDS011;6988;52.614;13.500;2023-03-01T03:40:47;27.27;;;21.13;;
13834;SDS011;6988;52.614;13.500;2023-03-01T03:45:44;25.77;;;21.07;;
13834;SDS011;6988;52.614;13.500;2023-03-01T03:50:37;28.13;;;21.23;;
13834;SDS011;6988;52.614;13.500;2023-03-01T03:55:30;26.20;;;20.80;;
13834;SDS011;6988;52.614;13.500;2023-03-01T04:00:25;28.60;;;21.63;;
13834;SDS011;6988;52.614;13.500;2023-03-01T04:05:17;27.00;;;20.70;;
13834;SDS011;6988;52.614;13.500;2023-03-01T04:10:11;26.73;;;20.77;;
13834;SDS011;6988;52.614;13.500;2023-03-01T04:15:06;28.10;;;20.93;;
13834;SDS011;6988;52.614;13.500;2023-03-01T04:20:05;28.33;;;21.90;;
13834;SDS011;6988;52.614;13.500;2023-03-01T04:25:01;27.37;;;22.37;;
13834;SDS011;6988;52.614;13.500;2023-03-01T04:29:54;27.87;;;21.53;;
13834;SDS011;6988;52.614;13.500;2023-03-01T04:34:46;25.40;;;20.50;;
13834;SDS011;6988;52.614;13.500;2023-03-01T04:39:39;25.93;;;20.50;;
13834;SDS011;6988;52.614;13.500;2023-03-01T04:44:35;27.80;;;21.47;;
13834;SDS011;6988;52.614;13.500;2023-03-01T04:49:27;26.07;;;20.50;;
13834;SDS011;6988;52.614;13.500;2023-03-01T04:54:19;25.40;;;20.13;;
13834;SDS011;6988;52.614;13.500;2023-03-01T04:59:12;26.63;;;20.10;;
13834;SDS011;6988;52.614;13.500;2023-03-01T05:04:05;27.00;;;21.27;;
13834;SDS011;6988;52.614;13.500;2023-03-01T05:08:57;29.57;;;21.80;;
13834;SDS011;6988;52.614;13.500;2023-03-01T05:13:49;28.13;;;21.30;;
13834;SDS011;6988;52.614;13.500;2023-03-01T05:18:46;26.20;;;21.13;;
13834;SDS011;6988;52.614;13.500;2023-03-01T05:23:38;26.07;;;20.50;;
13834;SDS011;6988;52.614;13.500;2023-03-01T05:28:31;25.23;;;19.90;;
13834;SDS011;6988;52.614;13.500;2023-03-01T05:33:23;26.00;;;19.83;;
13834;SDS011;6988;52.614;13.500;2023-03-01T05:38:17;25.17;;;18.97;;
13834;SDS011;6988;52.614;13.500;2023-03-01T05:43:09;27.77;;;21.60;;
13834;SDS011;6988;52.614;13.500;2023-03-01T05:48:03;25.43;;;20.50;;
13834;SDS011;6988;52.614;13.500;2023-03-01T05:52:57;25.37;;;20.60;;
13834;SDS011;6988;52.614;13.500;2023-03-01T05:57:54;24.27;;;19.10;;
13834;SDS011;6988;52.614;13.500;2023-03-01T06:02:48;26.80;;;20.50;;
13834;SDS011;6988;52.614;13.500;2023-03-01T06:07:41;33.23;;;24.17;;
13834;SDS011;6988;52.614;13.500;2023-03-01T06:12:34;29.63;;;22.53;;
13834;SDS011;6988;52.614;13.500;2023-03-01T06:17:30;28.53;;;20.37;;
13834;SDS011;6988;52.614;13.500;2023-03-01T06:22:27;24.13;;;19.20;;
13834;SDS011;6988;52.614;13.500;2023-03-01T06:27:19;26.57;;;21.40;;
13834;SDS011;6988;52.614;13.500;2023-03-01T06:32:10;25.87;;;20.33;;
13834;SDS011;6988;52.614;13.500;2023-03-01T06:37:06;26.40;;;20.63;;
13834;SDS011;6988;52.614;13.500;2023-03-01T06:41:58;26.23;;;20.10;;
13834;SDS011;6988;52.614;13.500;2023-03-01T06:46:50;24.67;;;19.40;;
13834;SDS011;6988;52.614;13.500;2023-03-01T06:51:43;25.30;;;20.73;;
13834;SDS011;6988;52.614;13.500;2023-03-01T06:56:36;24.40;;;19.77;;
13834;SDS011;6988;52.614;13.500;2023-03-01T07:01:29;25.20;;;19.93;;
13834;SDS011;6988;52.614;13.500;2023-03-01T07:06:21;27.47;;;20.10;;
13834;SDS011;6988;52.614;13.500;2023-03-01T07:11:14;25.10;;;19.37;;
13834;SDS011;6988;52.614;13.500;2023-03-01T07:16:08;23.27;;;18.10;;
13834;SDS011;6988;52.614;13.500;2023-03-01T07:21:03;24.97;;;17.77;;
13834;SDS011;6988;52.614;13.500;2023-03-01T07:25:56;22.17;;;16.07;;
13834;SDS011;6988;52.614;13.500;2023-03-01T07:30:48;20.80;;;15.63;;
13834;SDS011;6988;52.614;13.500;2023-03-01T07:35:41;19.60;;;13.60;;
13834;SDS011;6988;52.614;13.500;2023-03-01T07:40:33;18.43;;;13.47;;
13834;SDS011;6988;52.614;13.500;2023-03-01T07:45:25;16.53;;;12.80;;
13834;SDS011;6988;52.614;13.500;2023-03-01T07:50:17;16.63;;;12.67;;
13834;SDS011;6988;52.614;13.500;2023-03-01T07:55:12;21.07;;;13.30;;
13834;SDS011;6988;52.614;13.500;2023-03-01T08:00:05;18.73;;;12.70;;
13834;SDS011;6988;52.614;13.500;2023-03-01T08:05:04;17.57;;;13.37;;
13834;SDS011;6988;52.614;13.500;2023-03-01T08:09:56;16.80;;;12.97;;
13834;SDS011;6988;52.614;13.500;2023-03-01T08:14:49;17.80;;;13.13;;
13834;SDS011;6988;52.614;13.500;2023-03-01T08:19:42;17.33;;;12.33;;
13834;SDS011;6988;52.614;13.500;2023-03-01T08:24:34;17.53;;;12.03;;
13834;SDS011;6988;52.614;13.500;2023-03-01T08:29:26;15.07;;;10.17;;
13834;SDS011;6988;52.614;13.500;2023-03-01T08:34:19;12.73;;;8.93;;
13834;SDS011;6988;52.614;13.500;2023-03-01T08:39:12;9.20;;;6.73;;
13834;SDS011;6988;52.614;13.500;2023-03-01T23:05:06;31.87;;;25.33;;
13834;SDS011;6988;52.614;13.500;2023-03-01T23:09:59;29.57;;;23.37;;
13834;SDS011;6988;52.614;13.500;2023-03-01T23:14:51;32.27;;;24.13;;
13834;SDS011;6988;52.614;13.500;2023-03-01T23:19:43;28.90;;;23.37;;
13834;SDS011;6988;52.614;13.500;2023-03-01T23:24:36;28.20;;;19.60;;
13834;SDS011;6988;52.614;13.500;2023-03-01T23:29:28;26.03;;;19.50;;
13834;SDS011;6988;52.614;13.500;2023-03-01T23:34:21;28.37;;;21.13;;
13834;SDS011;6988;52.614;13.500;2023-03-01T23:39:13;29.43;;;20.97;;
13834;SDS011;6988;52.614;13.500;2023-03-01T23:44:06;33.00;;;23.83;;
13834;SDS011;6988;52.614;13.500;2023-03-01T23:49:01;32.47;;;24.23;;
13834;SDS011;6988;52.614;13.500;2023-03-01T23:53:54;32.80;;;25.07;;
13834;SDS011;6988;52.614;13.500;2023-03-01T23:58:49;36.17;;;25.00;;
